Time;durP1;ratioP1;P1;durP2;ratioP2;P2;SDS_P1;SDS_P2;PMS_P1;PMS_P2;Temp;Humidity;BMP_temperature;BMP_pressure;BME280_temperature;BME280_humidity;BME280_pressure;Samples;Min_cycle;Max_cycle;Signal;HPM_P1;HPM_P2
2022/08/17 00:00:48;;;;;;;33.25;30.63;;;;;;;21.63;72.84;100909.47;5024453;28;20024;-63
2022/08/17 00:03:20;;;;;;;34.80;32.00;;;;;;;21.62;73.20;100913.13;5047853;28;20037;-63
2022/08/17 00:06:13;;;;;;;36.13;33.13;;;;;;;21.60;72.80;100909.84;5047856;28;20025;-63
2022/08/17 00:08:51;;;;;;;34.95;31.90;;;;;;;21.67;72.59;100904.59;5028701;28;20029;-62
2022/08/17 00:11:22;;;;;;;37.40;34.30;;;;;;;21.57;73.46;100907.59;5043014;28;20021;-63
2022/08/17 00:13:52;;;;;;;36.20;33.15;;;;;;;21.66;72.78;100903.78;5041099;28;20028;-63
2022/08/17 00:16:21;;;;;;;35.85;33.08;;;;;;;21.62;72.73;100899.91;5047810;28;20043;-62
2022/08/17 00:18:47;;;;;;;37.17;34.15;;;;;;;21.60;73.09;100888.72;5047681;28;20373;-65
2022/08/17 00:21:14;;;;;;;36.88;33.88;;;;;;;21.64;72.65;100897.06;5047995;28;20464;-63
2022/08/17 00:23:41;;;;;;;38.03;34.78;;;;;;;21.56;73.20;100886.66;5048479;28;20381;-64
2022/08/17 00:26:07;;;;;;;37.55;34.50;;;;;;;21.65;72.99;100886.31;5048298;28;20047;-64
2022/08/17 00:28:33;;;;;;;36.92;34.03;;;;;;;21.52;73.62;100885.44;5045810;28;20070;-64
2022/08/17 00:30:58;;;;;;;37.25;34.25;;;;;;;21.57;73.49;100883.84;5030100;28;20056;-64
2022/08/17 00:33:27;;;;;;;36.03;32.97;;;;;;;21.58;73.24;100874.91;5047705;28;20075;-63
2022/08/17 00:35:54;;;;;;;36.47;33.42;;;;;;;21.54;73.59;100878.13;5023054;28;20025;-64
2022/08/17 00:38:20;;;;;;;37.40;34.45;;;;;;;21.56;73.43;100886.66;5047992;28;20308;-64
2022/08/17 00:40:51;;;;;;;38.17;35.10;;;;;;;21.54;73.36;100868.38;5043771;28;20629;-64
2022/08/17 00:43:26;;;;;;;37.78;34.53;;;;;;;21.54;73.25;100863.13;5047631;28;20333;-64
2022/08/17 00:45:52;;;;;;;36.72;33.92;;;;;;;21.53;73.59;100861.50;5045925;28;20056;-64
2022/08/17 00:48:19;;;;;;;37.65;34.60;;;;;;;21.57;73.21;100857.47;5047533;28;20108;-64
2022/08/17 00:50:56;;;;;;;37.25;34.35;;;;;;;21.59;73.10;100860.69;5048576;28;20024;-63
2022/08/17 00:53:22;;;;;;;37.65;34.55;;;;;;;21.46;73.85;100855.38;5047873;28;20033;-63
2022/08/17 00:55:48;;;;;;;37.95;34.75;;;;;;;21.44;73.97;100852.91;5052144;28;20115;-64
2022/08/17 00:58:13;;;;;;;39.30;36.05;;;;;;;21.40;74.03;100848.25;5048033;28;20029;-64
2022/08/17 01:00:42;;;;;;;38.00;34.97;;;;;;;21.46;73.75;100844.81;5048408;28;20040;-65
2022/08/17 01:03:12;;;;;;;36.17;33.45;;;;;;;21.54;73.09;100846.47;5046966;28;20111;-64
2022/08/17 01:05:39;;;;;;;37.45;34.53;;;;;;;21.40;73.55;100841.13;5036423;28;20025;-64
2022/08/17 01:08:11;;;;;;;37.83;34.85;;;;;;;21.34;74.02;100846.38;5043529;28;20408;-64
2022/08/17 01:10:44;;;;;;;36.97;33.88;;;;;;;21.39;73.60;100849.22;5050430;28;20021;-66
2022/08/17 01:13:11;;;;;;;36.97;33.67;;;;;;;21.42;73.22;100843.56;5035264;28;20047;-64
2022/08/17 01:15:40;;;;;;;36.75;33.50;;;;;;;21.39;73.41;100843.94;5024985;28;20278;-64
2022/08/17 01:18:07;;;;;;;36.08;33.13;;;;;;;21.36;72.93;100839.06;5017098;28;20033;-66
2022/08/17 01:20:33;;;;;;;35.60;32.67;;;;;;;21.41;72.28;100837.47;5026813;28;20033;-65
2022/08/17 01:23:00;;;;;;;33.10;30.50;;;;;;;21.46;72.51;100842.19;5037731;28;20579;-63
2022/08/17 01:25:28;;;;;;;34.20;31.25;;;;;;;21.35;73.07;100842.72;5024222;28;20033;-64
2022/08/17 01:27:54;;;;;;;34.85;32.05;;;;;;;21.40;72.28;100850.88;5034347;28;20451;-64
2022/08/17 01:30:20;;;;;;;33.10;30.40;;;;;;;21.41;72.23;100847.22;5026045;28;20097;-67
2022/08/17 01:32:45;;;;;;;33.15;30.55;;;;;;;21.44;72.33;100849.47;5031600;28;20507;-63
2022/08/17 01:35:18;;;;;;;33.80;31.00;;;;;;;21.43;72.49;100839.91;5100285;27;20407;-61
2022/08/17 01:37:44;;;;;;;33.88;31.17;;;;;;;21.36;73.01;100844.34;5092821;28;20703;-63
2022/08/17 01:40:21;;;;;;;33.05;30.40;;;;;;;21.33;73.42;100844.72;5076377;28;20429;-64
2022/08/17 01:42:47;;;;;;;34.28;31.48;;;;;;;21.34;72.61;100841.09;5084164;28;20039;-63
2022/08/17 01:45:41;;;;;;;32.43;29.93;;;;;;;21.40;72.50;100842.97;5082251;28;20020;-64
2022/08/17 01:48:07;;;;;;;34.58;32.00;;;;;;;21.31;72.80;100844.13;5069986;28;20637;-65
2022/08/17 01:50:36;;;;;;;34.58;31.85;;;;;;;21.32;73.00;100840.47;5076399;28;20489;-64
2022/08/17 01:53:08;;;;;;;33.80;31.10;;;;;;;21.27;73.00;100840.19;5071205;28;20027;-63
2022/08/17 01:55:41;;;;;;;33.15;30.45;;;;;;;21.24;73.23;100835.34;5078987;28;20130;-65
2022/08/17 01:58:08;;;;;;;33.22;30.63;;;;;;;21.31;72.77;100833.56;5081552;28;20146;-63
2022/08/17 02:00:38;;;;;;;34.30;31.50;;;;;;;21.12;73.17;100833.25;5079105;28;20051;-64
2022/08/17 02:03:04;;;;;;;33.95;31.25;;;;;;;21.21;72.78;100832.06;5073774;28;20384;-68
2022/08/17 02:05:31;;;;;;;33.67;30.92;;;;;;;21.14;73.18;100831.22;5072460;28;20032;-64
2022/08/17 02:07:58;;;;;;;32.83;30.17;;;;;;;21.18;72.91;100829.81;5076498;28;20032;-64
2022/08/17 02:10:24;;;;;;;33.30;30.60;;;;;;;21.18;72.21;100832.47;5078142;28;20021;-63
2022/08/17 02:12:50;;;;;;;34.92;32.13;;;;;;;21.12;72.62;100835.88;5080611;28;20031;-64
2022/08/17 02:15:15;;;;;;;34.35;31.55;;;;;;;21.10;72.71;100837.88;5094288;28;20067;-64
2022/08/17 02:17:41;;;;;;;34.35;31.65;;;;;;;21.14;72.69;100833.03;5089760;28;20024;-64
2022/08/17 02:20:08;;;;;;;33.38;30.67;;;;;;;21.13;72.77;100828.78;5082782;28;20051;-70
2022/08/17 02:22:35;;;;;;;35.33;32.60;;;;;;;21.12;72.86;100827.16;5075695;28;20029;-68
2022/08/17 02:25:02;;;;;;;33.83;31.05;;;;;;;21.00;73.41;100823.44;5083036;28;20455;-65
2022/08/17 02:27:27;;;;;;;35.38;32.45;;;;;;;21.04;73.51;100830.75;5070097;28;20024;-63
2022/08/17 02:29:53;;;;;;;34.85;32.05;;;;;;;21.07;73.38;100827.72;5073885;28;20028;-64
2022/08/17 02:32:25;;;;;;;35.22;32.38;;;;;;;21.03;73.42;100823.03;5074379;28;20550;-62
2022/08/17 02:34:51;;;;;;;34.95;32.15;;;;;;;21.04;73.51;100825.47;5080555;28;20403;-64
2022/08/17 02:37:17;;;;;;;34.10;31.20;;;;;;;20.98;73.32;100830.69;5077117;28;20029;-62
2022/08/17 02:39:46;;;;;;;34.95;32.03;;;;;;;20.96;73.18;100828.25;5083105;28;20028;-65
2022/08/17 02:42:13;;;;;;;35.08;32.13;;;;;;;20.94;73.33;100835.56;5075419;28;20406;-62
2022/08/17 02:44:40;;;;;;;34.83;32.13;;;;;;;20.94;73.58;100838.19;5079047;28;20400;-62
2022/08/17 02:47:07;;;;;;;35.40;32.55;;;;;;;20.92;73.80;100848.09;5065137;28;20036;-63
2022/08/17 02:49:32;;;;;;;37.15;34.13;;;;;;;20.85;75.09;100841.97;5057829;28;20052;-62
2022/08/17 02:52:01;;;;;;;38.08;34.97;;;;;;;20.79;75.40;100848.84;5052524;28;20068;-62
2022/08/17 02:54:27;;;;;;;36.67;33.67;;;;;;;20.78;75.70;100851.66;5050114;28;20045;-64
2022/08/17 02:56:52;;;;;;;37.22;34.22;;;;;;;20.77;75.59;100844.78;5075436;28;20024;-63
2022/08/17 02:59:17;;;;;;;37.17;34.25;;;;;;;20.76;75.72;100838.69;5060095;28;20362;-62
2022/08/17 03:01:43;;;;;;;36.95;33.78;;;;;;;20.74;75.74;100834.59;5076900;28;20057;-65
2022/08/17 03:04:09;;;;;;;36.75;33.55;;;;;;;20.76;75.39;100828.13;5062356;28;20450;-62
2022/08/17 03:06:36;;;;;;;34.40;31.23;;;;;;;20.68;75.98;100821.16;5055085;28;20024;-63
2022/08/17 03:09:01;;;;;;;35.70;32.80;;;;;;;20.75;75.75;100823.03;5066584;28;20020;-64
2022/08/17 03:11:27;;;;;;;35.53;32.63;;;;;;;20.71;75.55;100813.91;5058375;28;20487;-62
2022/08/17 03:13:52;;;;;;;34.83;31.83;;;;;;;20.65;75.53;100821.56;5067227;28;20111;-63
2022/08/17 03:16:17;;;;;;;34.47;31.48;;;;;;;20.62;75.40;100821.94;5056762;28;20029;-63
2022/08/17 03:18:43;;;;;;;34.45;31.50;;;;;;;20.55;75.78;100821.06;5057920;28;20035;-63
2022/08/17 03:21:08;;;;;;;34.92;32.13;;;;;;;20.60;75.63;100816.06;5078112;28;20293;-62
2022/08/17 03:23:39;;;;;;;34.47;31.77;;;;;;;20.60;75.58;100820.50;5071228;28;20028;-62
2022/08/17 03:26:06;;;;;;;34.22;31.42;;;;;;;20.49;76.42;100821.03;5052731;28;20042;-63
2022/08/17 03:28:31;;;;;;;33.35;30.42;;;;;;;20.53;76.55;100817.81;5064017;28;20032;-62
2022/08/17 03:30:57;;;;;;;32.78;30.10;;;;;;;20.54;76.44;100814.19;5054021;28;20020;-63
2022/08/17 03:33:22;;;;;;;33.95;31.08;;;;;;;20.46;76.58;100816.94;5064220;28;20045;-63
2022/08/17 03:35:48;;;;;;;32.63;29.90;;;;;;;20.60;75.36;100812.59;5038515;28;20524;-63
2022/08/17 03:38:15;;;;;;;32.28;29.77;;;;;;;20.54;75.44;100808.91;5045579;28;20062;-63
2022/08/17 03:40:41;;;;;;;33.03;30.23;;;;;;;20.38;76.28;100803.88;5028471;28;20041;-63
2022/08/17 03:43:08;;;;;;;32.38;29.77;;;;;;;20.27;76.70;100807.84;5047841;28;20135;-64
2022/08/17 03:56:43;;;;;;;33.42;30.73;;;;;;;20.31;76.55;100818.81;5048525;28;20051;-68
2022/08/17 03:59:15;;;;;;;33.15;30.45;;;;;;;20.28;76.75;100813.91;5046620;28;20056;-70
2022/08/17 04:01:43;;;;;;;32.47;29.88;;;;;;;20.26;76.90;100813.31;5054773;28;20037;-69
2022/08/17 04:04:09;;;;;;;34.28;31.35;;;;;;;20.27;76.35;100812.28;5045569;28;20025;-68
2022/08/17 04:06:34;;;;;;;35.30;32.22;;;;;;;20.26;76.68;100815.94;5045650;28;20048;-68
2022/08/17 04:09:00;;;;;;;34.25;31.60;;;;;;;20.22;76.86;100814.66;5043562;28;20020;-69
2022/08/17 04:11:25;;;;;;;33.83;31.05;;;;;;;20.16;76.85;100827.59;5049205;28;20037;-68
2022/08/17 04:13:50;;;;;;;34.25;31.35;;;;;;;20.23;77.01;100824.19;5050119;28;20078;-68
2022/08/17 04:16:16;;;;;;;33.60;30.90;;;;;;;20.11;77.20;100824.69;5046442;28;20041;-68
2022/08/17 04:18:41;;;;;;;34.08;31.35;;;;;;;20.21;76.78;100823.59;5049617;28;20573;-68
2022/08/17 04:21:09;;;;;;;33.38;30.77;;;;;;;20.08;77.23;100835.63;5047728;28;20388;-70
2022/08/17 04:23:35;;;;;;;35.40;32.17;;;;;;;20.13;77.10;100838.50;5043783;28;20056;-69
2022/08/17 04:26:01;;;;;;;33.97;31.23;;;;;;;20.07;77.16;100843.69;5046231;28;20055;-69
2022/08/17 04:28:27;;;;;;;35.70;32.50;;;;;;;20.14;76.59;100855.94;5046207;28;20417;-68
2022/08/17 04:30:52;;;;;;;35.50;32.55;;;;;;;20.13;77.18;100864.84;5041441;28;20033;-68
2022/08/17 04:33:24;;;;;;;37.33;34.35;;;;;;;20.08;77.69;100872.47;5046654;28;20037;-67
2022/08/17 04:35:52;;;;;;;36.90;33.80;;;;;;;20.13;77.50;100870.09;5042743;28;20017;-67
2022/08/17 04:38:24;;;;;;;36.85;33.95;;;;;;;20.13;77.72;100864.84;5038696;28;20484;-68
2022/08/17 04:43:37;;;;;;;36.65;33.75;;;;;;;20.10;78.05;100865.19;5038933;28;20036;-68
2022/08/17 04:46:05;;;;;;;34.95;32.15;;;;;;;20.16;78.00;100859.19;5045423;28;20110;-67
2022/08/17 04:48:37;;;;;;;34.55;31.90;;;;;;;20.10;78.26;100865.19;5042689;28;20386;-67
2022/08/17 04:51:09;;;;;;;34.38;31.52;;;;;;;20.09;78.05;100863.56;5041727;28;20104;-67
2022/08/17 04:53:35;;;;;;;33.25;30.45;;;;;;;20.06;78.33;100858.66;5035657;28;20025;-68
2022/08/17 04:56:00;;;;;;;33.80;31.10;;;;;;;20.09;77.92;100862.75;5024160;28;20035;-67
2022/08/17 04:58:26;;;;;;;32.78;30.23;;;;;;;20.05;77.63;100857.03;5041254;28;20373;-66
2022/08/17 05:00:52;;;;;;;33.35;30.67;;;;;;;20.05;77.52;100857.03;5050092;28;20103;-67
2022/08/17 05:03:17;;;;;;;32.83;30.17;;;;;;;19.99;77.84;100847.25;5043158;28;20389;-69
2022/08/17 05:05:48;;;;;;;34.00;31.13;;;;;;;20.01;77.77;100855.78;5027202;28;20029;-68
2022/08/17 05:08:15;;;;;;;32.60;29.98;;;;;;;20.05;77.40;100866.75;5042284;28;20060;-67
2022/08/17 05:10:40;;;;;;;32.60;29.75;;;;;;;20.06;76.96;100856.03;5044846;28;20036;-66
2022/08/17 05:13:09;;;;;;;30.50;28.05;;;;;;;20.11;77.31;100861.56;5031771;28;20033;-67
2022/08/17 05:15:37;;;;;;;30.90;28.30;;;;;;;20.06;77.38;100869.19;5057418;28;20408;-67
2022/08/17 05:18:04;;;;;;;30.88;28.27;;;;;;;20.03;77.41;100872.22;5034618;28;20079;-66
2022/08/17 05:20:30;;;;;;;30.20;27.85;;;;;;;20.06;77.69;100874.47;5039195;28;20121;-67
2022/08/17 05:22:58;;;;;;;30.40;27.80;;;;;;;20.04;77.85;100871.22;5041842;28;20056;-67
2022/08/17 05:25:32;;;;;;;29.35;27.13;;;;;;;20.04;77.92;100876.47;5035316;28;20036;-67
2022/08/17 05:27:58;;;;;;;28.45;26.20;;;;;;;20.12;77.66;100873.72;5045791;28;20025;-70
2022/08/17 05:30:24;;;;;;;28.67;26.30;;;;;;;20.15;77.45;100883.91;5042178;28;20407;-67
2022/08/17 05:32:51;;;;;;;28.50;26.05;;;;;;;20.15;77.26;100904.97;5043119;28;20036;-67
2022/08/17 05:35:16;;;;;;;29.02;26.52;;;;;;;20.22;76.87;100909.47;5057424;28;20436;-67
2022/08/17 05:37:41;;;;;;;28.75;26.35;;;;;;;20.15;76.70;100885.72;5058687;28;20028;-68
2022/08/17 05:40:09;;;;;;;28.88;26.50;;;;;;;20.20;76.97;100882.53;5066015;28;20035;-68
2022/08/17 05:42:34;;;;;;;28.67;26.30;;;;;;;20.17;77.40;100881.06;5065001;28;20030;-67
2022/08/17 05:44:59;;;;;;;29.02;26.63;;;;;;;20.17;77.14;100895.06;5065286;28;20035;-67
2022/08/17 05:47:26;;;;;;;28.27;25.73;;;;;;;20.21;76.83;100887.59;5068137;28;20077;-66
2022/08/17 05:49:51;;;;;;;27.98;25.67;;;;;;;20.11;77.06;100877.38;5066090;28;20475;-67
2022/08/17 05:52:52;;;;;;;29.08;26.13;;;;;;;20.12;77.62;100900.06;5068298;28;20047;-67
2022/08/17 05:55:20;;;;;;;29.02;26.40;;;;;;;20.23;77.42;100884.78;4997830;28;20053;-67
2022/08/17 05:58:04;;;;;;;;;;;;;;;20.40;75.87;100878.25;5015509;28;20068;-68
2022/08/17 06:00:42;;;;;;;27.75;25.25;;;;;;;20.29;77.11;100890.09;5000311;28;19913;-67
2022/08/17 06:03:25;;;;;;;27.75;25.40;;;;;;;20.40;76.21;100875.63;4996195;28;20048;-67
2022/08/17 06:06:29;;;;;;;27.55;25.15;;;;;;;20.33;76.36;100874.75;5008265;28;20081;-68
2022/08/17 06:09:10;;;;;;;27.08;24.88;;;;;;;20.33;76.44;100883.47;4980574;28;20074;-67
2022/08/17 06:11:38;;;;;;;28.10;25.80;;;;;;;20.25;76.71;100861.72;5003907;28;20037;-67
2022/08/17 06:14:12;;;;;;;27.38;24.88;;;;;;;20.38;76.12;100880.28;5001923;28;20385;-67
2022/08/17 06:16:46;;;;;;;28.70;26.30;;;;;;;20.33;76.52;100870.28;5007532;28;20425;-69
2022/08/17 06:19:19;;;;;;;29.30;26.67;;;;;;;20.20;77.54;100864.91;5009035;28;20461;-67
2022/08/17 06:21:51;;;;;;;28.67;26.35;;;;;;;20.17;77.28;100873.97;5003591;28;20084;-67
2022/08/17 06:24:23;;;;;;;29.40;27.00;;;;;;;20.24;77.52;100866.16;4994289;28;20036;-67
2022/08/17 06:26:51;;;;;;;30.83;28.23;;;;;;;20.24;77.25;100881.13;5006334;28;20038;-67
2022/08/17 06:29:57;;;;;;;30.25;27.52;;;;;;;20.33;76.80;100880.84;5013140;28;20033;-69
2022/08/17 06:32:24;;;;;;;30.70;28.20;;;;;;;20.25;77.18;100877.53;4993631;28;20121;-68
2022/08/17 06:34:51;;;;;;;31.08;28.48;;;;;;;20.25;77.70;100888.88;5006278;28;20037;-68
2022/08/17 06:37:55;;;;;;;31.27;28.60;;;;;;;20.40;76.91;100904.59;5005853;28;20049;-68
2022/08/17 06:40:26;;;;;;;31.25;28.75;;;;;;;20.30;77.56;100896.19;5004744;28;20026;-68
2022/08/17 06:42:59;;;;;;;31.55;28.75;;;;;;;20.35;77.04;100888.53;5009307;28;20042;-67
2022/08/17 06:45:30;;;;;;;31.75;29.17;;;;;;;20.40;76.77;100901.97;5006145;28;20021;-69
2022/08/17 06:48:30;;;;;;;31.17;28.48;;;;;;;20.43;76.83;100912.16;5008242;28;20069;-70
2022/08/17 06:51:04;;;;;;;32.92;30.13;;;;;;;20.40;76.43;100907.25;4989129;28;20080;-69
2022/08/17 06:53:41;;;;;;;32.78;30.08;;;;;;;20.40;76.24;100901.97;5008548;28;20517;-68
2022/08/17 06:56:12;;;;;;;32.00;29.30;;;;;;;20.42;76.57;100899.97;5004932;28;20038;-67
2022/08/17 06:58:42;;;;;;;33.85;30.95;;;;;;;20.41;76.24;100908.88;4986724;28;20048;-67
2022/08/17 07:01:13;;;;;;;31.80;29.20;;;;;;;20.44;76.32;100908.50;5004770;28;20045;-69
2022/08/17 07:03:53;;;;;;;32.50;29.73;;;;;;;20.59;75.81;100911.13;5037527;28;20524;-67
2022/08/17 07:06:23;;;;;;;33.30;30.20;;;;;;;20.56;75.38;100908.84;5048789;28;20043;-68
2022/08/17 07:08:56;;;;;;;33.50;30.80;;;;;;;20.53;75.82;100912.69;5049765;28;20032;-67
2022/08/17 07:11:31;;;;;;;34.65;31.45;;;;;;;20.58;75.75;100918.19;5051500;28;20028;-68
2022/08/17 07:14:03;;;;;;;32.70;29.90;;;;;;;20.61;75.19;100920.47;5064751;28;20291;-68
2022/08/17 07:16:38;;;;;;;34.35;31.52;;;;;;;20.53;75.68;100923.22;5060267;28;20490;-67
2022/08/17 07:19:06;;;;;;;33.72;30.92;;;;;;;20.55;75.20;100910.66;5051260;28;20090;-68
2022/08/17 07:21:50;;;;;;;32.92;30.25;;;;;;;20.58;75.09;100918.19;5052977;28;20028;-69
2022/08/17 07:24:36;;;;;;;33.97;30.98;;;;;;;20.59;75.37;100917.22;5049887;28;20032;-68
2022/08/17 07:27:05;;;;;;;33.85;31.13;;;;;;;20.52;75.42;100911.03;5065416;28;20117;-67
2022/08/17 07:29:34;;;;;;;33.83;31.05;;;;;;;20.55;75.77;100915.94;5058734;28;20456;-67
2022/08/17 07:32:00;;;;;;;33.78;31.08;;;;;;;20.56;75.72;100922.84;5072497;28;20031;-67
2022/08/17 07:34:26;;;;;;;34.33;31.50;;;;;;;20.56;75.56;100930.75;5044918;28;20045;-68
2022/08/17 07:40:26;;;;;;;34.30;31.50;;;;;;;20.45;75.56;100910.13;5046301;23;20085;-73
2022/08/17 07:43:25;;;;;;;32.97;30.17;;;;;;;20.69;75.46;100933.50;5005741;28;20053;-73
2022/08/17 07:48:42;;;;;;;34.17;31.27;;;;;;;20.58;75.22;100936.63;5004546;28;20075;-73
2022/08/17 07:51:28;;;;;;;;;;;;;;;20.83;74.24;100954.72;4985019;28;20029;-73
2022/08/17 07:53:56;;;;;;;32.80;29.77;;;;;;;20.77;75.62;100955.47;5009630;28;19922;-74
2022/08/17 07:56:32;;;;;;;34.78;31.83;;;;;;;20.69;75.81;100959.84;5001894;28;20547;-73
2022/08/17 07:59:23;;;;;;;33.05;30.27;;;;;;;20.81;75.02;100962.00;5007906;28;20033;-73
2022/08/17 08:01:55;;;;;;;34.83;31.83;;;;;;;20.76;75.50;100956.47;5006710;28;20026;-74
2022/08/17 08:04:37;;;;;;;33.72;30.92;;;;;;;20.82;75.88;100958.38;5007339;28;20025;-73
2022/08/17 08:07:09;;;;;;;35.90;32.92;;;;;;;20.81;75.93;100960.16;5011055;28;20548;-73
2022/08/17 08:09:41;;;;;;;34.28;31.33;;;;;;;20.79;75.93;100958.72;5007413;28;20370;-74
2022/08/17 08:12:47;;;;;;;32.88;30.08;;;;;;;20.91;75.56;100954.59;5011362;28;20053;-73
2022/08/17 08:15:20;;;;;;;35.70;32.70;;;;;;;20.93;76.56;100963.09;4985534;28;20085;-74
2022/08/17 08:17:48;;;;;;;35.13;32.20;;;;;;;20.89;75.76;100960.06;5005482;28;20378;-74
2022/08/17 08:20:14;;;;;;;34.92;31.95;;;;;;;20.90;75.89;100960.88;5001937;28;20044;-74
2022/08/17 08:23:05;;;;;;;35.80;32.67;;;;;;;20.98;75.85;100963.34;5005753;28;20026;-73
2022/08/17 08:26:01;;;;;;;35.85;32.85;;;;;;;20.98;75.70;100952.81;5004732;28;20040;-74
2022/08/17 08:28:44;;;;;;;35.58;32.58;;;;;;;20.97;76.32;100960.91;5003027;28;20033;-73
2022/08/17 08:31:43;;;;;;;36.40;33.47;;;;;;;21.01;75.52;100968.25;5007979;28;20046;-73
2022/08/17 08:34:33;;;;;;;36.15;33.15;;;;;;;21.02;75.88;100985.72;4981767;28;20125;-73
2022/08/17 08:37:13;;;;;;;35.35;32.33;;;;;;;21.07;75.81;100993.88;5009074;28;20075;-74
2022/08/17 08:40:02;;;;;;;36.08;33.17;;;;;;;21.04;75.42;100999.50;4989890;28;20080;-73
2022/08/17 08:43:07;;;;;;;35.75;32.85;;;;;;;21.08;75.52;101016.59;5009134;28;20029;-73
2022/08/17 08:45:47;;;;;;;34.25;31.35;;;;;;;21.15;75.09;101020.09;5007109;28;20050;-73
2022/08/17 08:48:17;;;;;;;33.70;30.90;;;;;;;21.11;74.81;101031.25;5008866;28;20465;-74
2022/08/17 08:51:26;;;;;;;34.88;31.88;;;;;;;21.29;73.85;101049.25;5017554;28;20473;-73
2022/08/17 08:54:30;;;;;;;36.42;33.33;;;;;;;21.34;74.56;101033.72;4963891;28;20042;-74
2022/08/17 08:57:04;;;;;;;34.42;31.63;;;;;;;21.39;74.35;100992.56;5013924;28;20029;-73
2022/08/17 08:59:31;;;;;;;36.65;33.55;;;;;;;21.36;74.43;100976.28;5010885;28;20042;-73
2022/08/17 09:02:02;;;;;;;38.00;34.97;;;;;;;21.34;75.63;100968.56;5005424;28;20022;-73
2022/08/17 09:04:56;;;;;;;37.85;34.55;;;;;;;21.36;75.05;100944.63;4988984;28;20121;-73
2022/08/17 09:07:39;;;;;;;37.92;34.83;;;;;;;21.32;74.83;100922.25;4996896;28;20034;-74
2022/08/17 09:10:15;;;;;;;36.67;33.55;;;;;;;21.19;75.25;100907.94;5005991;28;20042;-73
2022/08/17 09:12:43;;;;;;;37.20;34.30;;;;;;;21.18;75.44;100900.22;5006019;28;20026;-73
2022/08/17 09:15:19;;;;;;;36.90;34.00;;;;;;;21.08;75.09;100905.84;5010916;28;20206;-73
2022/08/17 09:17:56;;;;;;;54.70;33.95;;;;;;;21.18;75.38;100916.88;5004685;28;20109;-73
2022/08/17 09:20:56;;;;;;;35.85;32.85;;;;;;;21.33;75.06;100926.53;4991570;28;20034;-73
2022/08/17 09:23:31;;;;;;;37.17;34.08;;;;;;;21.32;75.07;100909.88;4974757;28;20541;-73
2022/08/17 09:26:26;;;;;;;38.55;35.38;;;;;;;21.38;74.93;100916.19;5004922;28;20084;-73
2022/08/17 09:29:00;;;;;;;35.67;32.78;;;;;;;21.50;75.42;100925.19;4989116;28;20374;-74
2022/08/17 09:31:37;;;;;;;36.20;33.20;;;;;;;21.53;75.29;100940.66;5007428;28;20034;-73
2022/08/17 09:34:16;;;;;;;35.95;32.95;;;;;;;21.61;74.40;100953.69;5005275;28;20116;-73
2022/08/17 09:36:54;;;;;;;36.22;33.17;;;;;;;21.67;75.36;100960.84;4992898;28;20191;-74
2022/08/17 09:39:29;;;;;;;36.70;33.65;;;;;;;21.71;74.31;100964.72;4990742;28;20098;-74
2022/08/17 09:42:09;;;;;;;36.10;33.20;;;;;;;21.88;75.47;100969.69;4999452;28;20480;-73
2022/08/17 09:44:50;;;;;;;37.00;33.88;;;;;;;21.98;75.11;100976.25;4992261;28;20414;-74
2022/08/17 09:47:31;;;;;;;36.05;33.15;;;;;;;21.86;74.26;100983.09;4996277;28;20022;-73
2022/08/17 09:50:06;;;;;;;33.20;30.50;;;;;;;22.02;73.83;100997.78;4989061;28;20030;-73
2022/08/17 09:52:32;;;;;;;32.60;29.67;;;;;;;22.19;73.17;100993.00;4989798;28;20036;-73
2022/08/17 09:54:59;;;;;;;33.80;31.00;;;;;;;22.06;73.38;100999.03;4991386;28;20041;-74
2022/08/17 09:57:40;;;;;;;32.35;29.55;;;;;;;22.26;73.76;100994.69;4996640;28;20062;-73
2022/08/17 10:00:23;;;;;;;34.67;31.73;;;;;;;22.22;72.96;101022.50;4997175;28;20508;-73
2022/08/17 10:03:16;;;;;;;35.33;32.38;;;;;;;22.31;72.94;101017.03;4993468;28;20289;-74
2022/08/17 10:06:18;;;;;;;33.50;30.58;;;;;;;22.50;72.40;101013.66;4993826;28;20129;-74
2022/08/17 10:09:13;;;;;;;34.10;31.20;;;;;;;22.51;72.27;101013.47;5005834;28;20508;-74
2022/08/17 10:15:00;;;;;;;35.15;32.33;;;;;;;22.18;72.15;100997.47;4994370;28;20405;-74
2022/08/17 10:17:37;;;;;;;35.42;32.53;;;;;;;22.26;72.67;101004.44;4999863;28;20434;-73
2022/08/17 10:20:15;;;;;;;35.43;32.40;;;;;;;22.25;72.46;101022.13;4991653;28;20034;-74
2022/08/17 10:29:08;;;;;;;32.50;29.75;;;;;;;22.33;70.84;101059.94;5001388;28;20112;-74
2022/08/17 10:31:43;;;;;;;33.35;30.65;;;;;;;22.14;71.46;101070.22;4972330;28;20042;-73
2022/08/17 10:34:26;;;;;;;34.00;31.17;;;;;;;22.24;70.84;101065.38;4992522;28;20027;-75
2022/08/17 10:37:05;;;;;;;34.33;31.35;;;;;;;22.12;70.81;101072.22;5002058;28;20080;-74
2022/08/17 10:39:44;;;;;;;34.03;31.33;;;;;;;21.95;72.34;101066.41;4998418;28;20406;-74
2022/08/17 10:42:22;;;;;;;36.70;33.80;;;;;;;21.98;74.22;101070.50;4999418;28;20030;-73
2022/08/17 10:44:55;;;;;;;36.40;33.20;;;;;;;21.99;74.45;101066.84;4999729;28;20139;-72
2022/08/17 10:47:25;;;;;;;36.38;33.45;;;;;;;21.91;74.25;101053.81;5002367;28;20037;-73
2022/08/17 10:49:54;;;;;;;36.50;33.42;;;;;;;21.90;75.48;101073.28;4999202;28;20105;-73
2022/08/17 10:52:24;;;;;;;36.70;33.80;;;;;;;21.86;75.10;101083.44;4997746;28;20453;-72
2022/08/17 10:54:50;;;;;;;36.92;34.00;;;;;;;21.95;74.49;101076.16;5001661;28;20033;-74
2022/08/17 10:57:30;;;;;;;36.90;34.00;;;;;;;21.93;75.38;101072.91;4992269;28;20029;-73
2022/08/17 10:59:58;;;;;;;38.63;35.42;;;;;;;21.68;75.90;101076.00;4990456;28;20791;-73
2022/08/17 11:02:49;;;;;;;39.95;36.83;;;;;;;21.71;76.50;101080.88;5009762;28;20041;-73
2022/08/17 11:05:26;;;;;;;38.78;35.75;;;;;;;21.57;77.22;101073.06;5008259;28;20546;-74
2022/08/17 11:08:45;;;;;;;40.10;36.97;;;;;;;21.55;75.95;101065.31;4999943;28;20030;-73
2022/08/17 11:11:16;;;;;;;41.63;38.05;;;;;;;21.11;79.06;101052.34;4928217;29;20498;-74
2022/08/17 11:14:10;;;;;;;39.05;35.80;;;;;;;21.09;79.78;101060.44;4927778;29;20142;-74
2022/08/17 11:17:06;;;;;;;38.38;35.35;;;;;;;21.03;79.28;101071.72;4928885;29;20775;-73
2022/08/17 11:20:03;;;;;;;39.78;36.45;;;;;;;21.01;80.16;101063.19;4927859;29;20043;-74
2022/08/17 11:22:47;;;;;;;;;;;;;;;21.21;77.86;101048.38;4925078;29;20031;-74
2022/08/17 11:25:16;;;;;;;40.13;36.92;;;;;;;20.64;81.76;101045.75;4928639;29;20370;-75
2022/08/17 11:27:44;;;;;;;38.38;35.40;;;;;;;20.53;81.78;101028.63;4930602;29;20180;-74
2022/08/17 11:30:34;;;;;;;36.53;33.60;;;;;;;20.20;82.83;101027.38;4929896;29;20103;-75
2022/08/17 11:33:29;;;;;;;36.58;33.58;;;;;;;20.25;83.55;101039.00;4941111;29;20036;-75
2022/08/17 11:36:28;;;;;;;37.53;34.53;;;;;;;20.11;84.28;101032.72;4927455;29;20044;-75
2022/08/17 11:39:17;;;;;;;37.33;34.22;;;;;;;20.09;84.75;101041.81;4907318;29;20487;-74
2022/08/17 11:42:10;;;;;;;36.55;33.65;;;;;;;20.02;84.49;101031.22;4930410;29;20039;-74
2022/08/17 11:44:54;;;;;;;35.70;32.90;;;;;;;19.95;84.43;101032.91;4963806;28;20034;-75
2022/08/17 11:53:36;;;;;;;37.40;34.40;;;;;;;19.81;84.93;101045.06;4987269;28;20065;-74
2022/08/17 11:56:02;;;;;;;37.38;34.42;;;;;;;19.84;85.61;101049.16;5007236;28;20061;-74
2022/08/17 11:58:30;;;;;;;37.90;34.85;;;;;;;19.93;87.26;101048.06;4995185;28;20058;-75
2022/08/17 12:01:03;;;;;;;36.30;33.47;;;;;;;19.85;86.23;101048.19;4999742;28;20074;-74
2022/08/17 12:03:35;;;;;;;34.33;31.63;;;;;;;19.97;85.63;101053.81;4997046;28;20076;-75
2022/08/17 12:06:19;;;;;;;35.90;33.00;;;;;;;19.84;87.30;101043.88;5001747;28;20061;-74
2022/08/17 12:08:55;;;;;;;34.20;31.30;;;;;;;19.83;85.38;101050.97;5008798;28;20053;-74
2022/08/17 12:11:45;;;;;;;35.15;32.13;;;;;;;19.85;85.73;101050.81;5002717;28;20038;-74
2022/08/17 12:14:15;;;;;;;35.92;33.03;;;;;;;19.88;86.98;101066.22;5000611;28;20042;-75